sensor_id;sensor_type;location;lat;lon;timestamp;P1;durP1;ratioP1;P2;durP2;ratioP2
21979;SDS011;11154;48.558;9.234;2023-07-09T00:01:53;5.28;;;3.03;;
21979;SDS011;11154;48.558;9.234;2023-07-09T00:03:54;7.38;;;3.05;;
21979;SDS011;11154;48.558;9.234;2023-07-09T00:05:56;3.83;;;3.10;;
21979;SDS011;11154;48.558;9.234;2023-07-09T00:07:57;4.00;;;3.00;;
21979;SDS011;11154;48.558;9.234;2023-07-09T00:10:01;6.95;;;3.42;;
21979;SDS011;11154;48.558;9.234;2023-07-09T00:12:04;7.22;;;3.40;;
21979;SDS011;11154;48.558;9.234;2023-07-09T00:14:06;6.88;;;3.30;;
21979;SDS011;11154;48.558;9.234;2023-07-09T00:16:10;5.95;;;2.85;;
21979;SDS011;11154;48.558;9.234;2023-07-09T00:18:16;6.75;;;2.75;;
21979;SDS011;11154;48.558;9.234;2023-07-09T00:20:18;6.63;;;3.70;;
21979;SDS011;11154;48.558;9.234;2023-07-09T00:22:20;9.55;;;3.55;;
21979;SDS011;11154;48.558;9.234;2023-07-09T00:24:22;7.68;;;4.18;;
21979;SDS011;11154;48.558;9.234;2023-07-09T00:26:23;6.40;;;3.80;;
21979;SDS011;11154;48.558;9.234;2023-07-09T00:28:26;9.02;;;3.28;;
21979;SDS011;11154;48.558;9.234;2023-07-09T00:30:27;5.18;;;2.92;;
21979;SDS011;11154;48.558;9.234;2023-07-09T00:32:29;6.35;;;3.25;;
21979;SDS011;11154;48.558;9.234;2023-07-09T00:34:33;7.32;;;3.20;;
21979;SDS011;11154;48.558;9.234;2023-07-09T00:36:34;5.93;;;3.50;;
21979;SDS011;11154;48.558;9.234;2023-07-09T00:38:36;4.40;;;2.95;;
21979;SDS011;11154;48.558;9.234;2023-07-09T00:40:43;4.22;;;3.00;;
21979;SDS011;11154;48.558;9.234;2023-07-09T00:42:51;4.43;;;2.83;;
21979;SDS011;11154;48.558;9.234;2023-07-09T00:44:55;6.18;;;3.13;;
21979;SDS011;11154;48.558;9.234;2023-07-09T00:49:42;4.65;;;2.92;;
21979;SDS011;11154;48.558;9.234;2023-07-09T00:51:46;5.18;;;2.97;;
21979;SDS011;11154;48.558;9.234;2023-07-09T00:53:48;4.38;;;3.17;;
21979;SDS011;11154;48.558;9.234;2023-07-09T00:55:52;4.35;;;3.25;;
21979;SDS011;11154;48.558;9.234;2023-07-09T00:58:00;4.70;;;2.92;;
21979;SDS011;11154;48.558;9.234;2023-07-09T01:00:05;5.18;;;3.40;;
21979;SDS011;11154;48.558;9.234;2023-07-09T01:02:13;3.65;;;2.80;;
21979;SDS011;11154;48.558;9.234;2023-07-09T01:04:15;4.05;;;3.15;;
21979;SDS011;11154;48.558;9.234;2023-07-09T01:06:18;7.45;;;3.10;;
21979;SDS011;11154;48.558;9.234;2023-07-09T01:08:26;5.45;;;3.13;;
21979;SDS011;11154;48.558;9.234;2023-07-09T01:10:32;4.45;;;3.30;;
21979;SDS011;11154;48.558;9.234;2023-07-09T01:12:33;4.47;;;3.10;;
21979;SDS011;11154;48.558;9.234;2023-07-09T01:14:36;5.57;;;3.10;;
21979;SDS011;11154;48.558;9.234;2023-07-09T01:16:41;5.05;;;3.38;;
21979;SDS011;11154;48.558;9.234;2023-07-09T01:18:45;6.45;;;3.28;;
21979;SDS011;11154;48.558;9.234;2023-07-09T01:20:47;7.03;;;3.13;;
21979;SDS011;11154;48.558;9.234;2023-07-09T01:22:50;6.90;;;3.33;;
21979;SDS011;11154;48.558;9.234;2023-07-09T01:24:56;6.32;;;3.50;;
21979;SDS011;11154;48.558;9.234;2023-07-09T01:27:01;4.85;;;2.95;;
21979;SDS011;11154;48.558;9.234;2023-07-09T01:29:03;5.72;;;3.10;;
21979;SDS011;11154;48.558;9.234;2023-07-09T01:31:04;5.63;;;3.00;;
21979;SDS011;11154;48.558;9.234;2023-07-09T01:33:06;4.50;;;3.10;;
21979;SDS011;11154;48.558;9.234;2023-07-09T01:35:09;5.20;;;3.20;;
21979;SDS011;11154;48.558;9.234;2023-07-09T01:37:11;6.70;;;3.13;;
21979;SDS011;11154;48.558;9.234;2023-07-09T01:39:13;4.72;;;3.17;;
21979;SDS011;11154;48.558;9.234;2023-07-09T01:41:15;7.53;;;3.00;;
21979;SDS011;11154;48.558;9.234;2023-07-09T01:43:19;6.43;;;3.10;;
21979;SDS011;11154;48.558;9.234;2023-07-09T01:45:21;5.18;;;3.33;;
21979;SDS011;11154;48.558;9.234;2023-07-09T01:47:23;5.60;;;3.38;;
21979;SDS011;11154;48.558;9.234;2023-07-09T01:49:24;4.57;;;3.13;;
21979;SDS011;11154;48.558;9.234;2023-07-09T01:51:29;6.95;;;3.28;;
21979;SDS011;11154;48.558;9.234;2023-07-09T01:53:32;7.45;;;3.05;;
21979;SDS011;11154;48.558;9.234;2023-07-09T01:55:35;6.45;;;3.13;;
21979;SDS011;11154;48.558;9.234;2023-07-09T01:57:37;3.85;;;2.65;;
21979;SDS011;11154;48.558;9.234;2023-07-09T01:59:37;6.22;;;3.35;;
21979;SDS011;11154;48.558;9.234;2023-07-09T02:01:41;5.95;;;3.38;;
21979;SDS011;11154;48.558;9.234;2023-07-09T02:03:42;4.88;;;3.13;;
21979;SDS011;11154;48.558;9.234;2023-07-09T02:05:44;5.85;;;3.00;;
21979;SDS011;11154;48.558;9.234;2023-07-09T02:07:46;5.32;;;3.00;;
21979;SDS011;11154;48.558;9.234;2023-07-09T02:09:49;5.15;;;2.90;;
21979;SDS011;11154;48.558;9.234;2023-07-09T02:11:51;4.13;;;3.20;;
21979;SDS011;11154;48.558;9.234;2023-07-09T02:13:53;4.97;;;3.05;;
21979;SDS011;11154;48.558;9.234;2023-07-09T02:15:54;4.97;;;3.35;;
21979;SDS011;11154;48.558;9.234;2023-07-09T02:17:56;3.47;;;2.47;;
21979;SDS011;11154;48.558;9.234;2023-07-09T02:19:58;6.35;;;3.00;;
21979;SDS011;11154;48.558;9.234;2023-07-09T02:22:00;5.60;;;3.20;;
21979;SDS011;11154;48.558;9.234;2023-07-09T02:24:02;8.52;;;3.08;;
21979;SDS011;11154;48.558;9.234;2023-07-09T02:26:04;6.07;;;3.20;;
21979;SDS011;11154;48.558;9.234;2023-07-09T02:28:07;5.32;;;3.17;;
21979;SDS011;11154;48.558;9.234;2023-07-09T02:30:09;5.78;;;3.10;;
21979;SDS011;11154;48.558;9.234;2023-07-09T02:32:13;4.45;;;2.95;;
21979;SDS011;11154;48.558;9.234;2023-07-09T02:34:17;6.57;;;3.05;;
21979;SDS011;11154;48.558;9.234;2023-07-09T02:36:19;4.72;;;3.13;;
21979;SDS011;11154;48.558;9.234;2023-07-09T02:38:20;4.68;;;3.10;;
21979;SDS011;11154;48.558;9.234;2023-07-09T02:40:22;7.30;;;3.20;;
21979;SDS011;11154;48.558;9.234;2023-07-09T02:42:24;4.80;;;3.20;;
21979;SDS011;11154;48.558;9.234;2023-07-09T02:44:27;4.80;;;3.00;;
21979;SDS011;11154;48.558;9.234;2023-07-09T02:46:28;6.18;;;3.42;;
21979;SDS011;11154;48.558;9.234;2023-07-09T02:48:30;4.63;;;3.40;;
21979;SDS011;11154;48.558;9.234;2023-07-09T02:50:31;8.23;;;3.47;;
21979;SDS011;11154;48.558;9.234;2023-07-09T02:52:33;5.85;;;3.50;;
21979;SDS011;11154;48.558;9.234;2023-07-09T02:54:35;5.97;;;3.38;;
21979;SDS011;11154;48.558;9.234;2023-07-09T02:56:36;5.20;;;3.58;;
21979;SDS011;11154;48.558;9.234;2023-07-09T02:58:38;6.65;;;3.60;;
21979;SDS011;11154;48.558;9.234;2023-07-09T03:00:41;8.48;;;3.33;;
21979;SDS011;11154;48.558;9.234;2023-07-09T03:02:42;6.55;;;3.30;;
21979;SDS011;11154;48.558;9.234;2023-07-09T03:04:43;5.05;;;3.35;;
21979;SDS011;11154;48.558;9.234;2023-07-09T03:06:44;5.85;;;3.35;;
21979;SDS011;11154;48.558;9.234;2023-07-09T03:08:46;5.53;;;3.45;;
21979;SDS011;11154;48.558;9.234;2023-07-09T03:10:47;8.88;;;3.53;;
21979;SDS011;11154;48.558;9.234;2023-07-09T03:12:49;6.00;;;3.38;;
21979;SDS011;11154;48.558;9.234;2023-07-09T03:14:50;5.95;;;3.65;;
21979;SDS011;11154;48.558;9.234;2023-07-09T03:16:53;5.32;;;3.47;;
21979;SDS011;11154;48.558;9.234;2023-07-09T03:18:56;6.85;;;3.30;;
21979;SDS011;11154;48.558;9.234;2023-07-09T03:20:58;5.80;;;3.67;;
21979;SDS011;11154;48.558;9.234;2023-07-09T03:23:00;4.97;;;3.42;;
21979;SDS011;11154;48.558;9.234;2023-07-09T03:25:01;7.07;;;3.40;;
21979;SDS011;11154;48.558;9.234;2023-07-09T03:27:03;5.60;;;2.97;;
21979;SDS011;11154;48.558;9.234;2023-07-09T03:29:05;7.05;;;2.90;;
21979;SDS011;11154;48.558;9.234;2023-07-09T03:31:06;5.28;;;3.33;;
21979;SDS011;11154;48.558;9.234;2023-07-09T03:33:10;8.55;;;3.45;;
21979;SDS011;11154;48.558;9.234;2023-07-09T03:35:13;4.82;;;3.42;;
21979;SDS011;11154;48.558;9.234;2023-07-09T03:37:15;7.43;;;3.35;;
21979;SDS011;11154;48.558;9.234;2023-07-09T03:39:17;4.80;;;3.20;;
21979;SDS011;11154;48.558;9.234;2023-07-09T03:41:18;4.82;;;3.33;;
21979;SDS011;11154;48.558;9.234;2023-07-09T03:43:20;9.05;;;4.25;;
21979;SDS011;11154;48.558;9.234;2023-07-09T03:45:23;8.07;;;4.60;;
21979;SDS011;11154;48.558;9.234;2023-07-09T03:47:24;7.53;;;3.70;;
21979;SDS011;11154;48.558;9.234;2023-07-09T03:49:26;6.57;;;3.25;;
21979;SDS011;11154;48.558;9.234;2023-07-09T03:51:28;4.70;;;3.15;;
21979;SDS011;11154;48.558;9.234;2023-07-09T03:53:30;5.10;;;3.47;;
21979;SDS011;11154;48.558;9.234;2023-07-09T03:55:31;7.47;;;3.40;;
21979;SDS011;11154;48.558;9.234;2023-07-09T03:57:33;4.88;;;2.83;;
21979;SDS011;11154;48.558;9.234;2023-07-09T03:59:35;4.43;;;3.10;;
21979;SDS011;11154;48.558;9.234;2023-07-09T04:01:39;7.72;;;2.83;;
21979;SDS011;11154;48.558;9.234;2023-07-09T04:03:44;5.20;;;3.20;;
21979;SDS011;11154;48.558;9.234;2023-07-09T04:05:48;6.63;;;3.20;;
21979;SDS011;11154;48.558;9.234;2023-07-09T04:07:50;5.88;;;3.22;;
21979;SDS011;11154;48.558;9.234;2023-07-09T04:09:52;4.28;;;2.95;;
21979;SDS011;11154;48.558;9.234;2023-07-09T04:11:53;4.68;;;2.70;;
21979;SDS011;11154;48.558;9.234;2023-07-09T04:13:55;5.55;;;3.30;;
21979;SDS011;11154;48.558;9.234;2023-07-09T04:15:56;4.68;;;2.70;;
21979;SDS011;11154;48.558;9.234;2023-07-09T04:17:58;5.13;;;3.00;;
21979;SDS011;11154;48.558;9.234;2023-07-09T04:19:59;8.13;;;3.20;;
21979;SDS011;11154;48.558;9.234;2023-07-09T04:22:03;7.05;;;3.30;;
21979;SDS011;11154;48.558;9.234;2023-07-09T04:24:05;5.20;;;3.03;;
21979;SDS011;11154;48.558;9.234;2023-07-09T04:26:07;5.63;;;3.33;;
21979;SDS011;11154;48.558;9.234;2023-07-09T04:28:13;6.03;;;3.10;;
21979;SDS011;11154;48.558;9.234;2023-07-09T04:30:15;6.70;;;3.00;;
21979;SDS011;11154;48.558;9.234;2023-07-09T04:32:16;7.90;;;3.80;;
21979;SDS011;11154;48.558;9.234;2023-07-09T04:34:17;7.50;;;3.45;;
21979;SDS011;11154;48.558;9.234;2023-07-09T04:36:19;6.47;;;3.10;;
21979;SDS011;11154;48.558;9.234;2023-07-09T04:38:21;5.95;;;3.10;;
21979;SDS011;11154;48.558;9.234;2023-07-09T04:40:23;7.47;;;3.20;;
21979;SDS011;11154;48.558;9.234;2023-07-09T04:42:25;5.15;;;3.28;;
21979;SDS011;11154;48.558;9.234;2023-07-09T04:44:26;7.65;;;3.50;;
21979;SDS011;11154;48.558;9.234;2023-07-09T04:46:28;5.72;;;3.30;;
21979;SDS011;11154;48.558;9.234;2023-07-09T04:48:29;4.82;;;3.08;;
21979;SDS011;11154;48.558;9.234;2023-07-09T04:50:31;7.28;;;3.70;;
21979;SDS011;11154;48.558;9.234;2023-07-09T04:52:32;5.30;;;3.15;;
21979;SDS011;11154;48.558;9.234;2023-07-09T04:54:35;7.38;;;3.08;;
21979;SDS011;11154;48.558;9.234;2023-07-09T04:56:38;4.40;;;3.33;;
21979;SDS011;11154;48.558;9.234;2023-07-09T04:58:39;5.10;;;3.50;;
21979;SDS011;11154;48.558;9.234;2023-07-09T05:00:41;7.63;;;4.00;;
21979;SDS011;11154;48.558;9.234;2023-07-09T05:02:43;6.53;;;4.00;;
21979;SDS011;11154;48.558;9.234;2023-07-09T05:04:45;8.45;;;3.17;;
21979;SDS011;11154;48.558;9.234;2023-07-09T05:06:45;4.80;;;3.38;;
21979;SDS011;11154;48.558;9.234;2023-07-09T05:08:47;5.10;;;3.50;;
21979;SDS011;11154;48.558;9.234;2023-07-09T05:10:51;7.57;;;4.10;;
21979;SDS011;11154;48.558;9.234;2023-07-09T05:12:53;9.15;;;3.83;;
21979;SDS011;11154;48.558;9.234;2023-07-09T05:14:55;7.10;;;3.80;;
21979;SDS011;11154;48.558;9.234;2023-07-09T05:16:57;8.85;;;3.97;;
21979;SDS011;11154;48.558;9.234;2023-07-09T05:18:58;4.90;;;3.28;;
21979;SDS011;11154;48.558;9.234;2023-07-09T05:21:00;4.38;;;3.40;;
21979;SDS011;11154;48.558;9.234;2023-07-09T05:23:02;4.68;;;3.60;;
21979;SDS011;11154;48.558;9.234;2023-07-09T05:25:03;4.80;;;3.22;;
21979;SDS011;11154;48.558;9.234;2023-07-09T05:27:07;5.13;;;3.60;;
21979;SDS011;11154;48.558;9.234;2023-07-09T05:29:08;7.10;;;3.30;;
21979;SDS011;11154;48.558;9.234;2023-07-09T05:31:10;7.10;;;3.97;;
21979;SDS011;11154;48.558;9.234;2023-07-09T05:33:12;6.50;;;3.97;;
21979;SDS011;11154;48.558;9.234;2023-07-09T05:35:14;5.30;;;3.10;;
21979;SDS011;11154;48.558;9.234;2023-07-09T05:37:15;9.07;;;3.67;;
21979;SDS011;11154;48.558;9.234;2023-07-09T05:39:17;8.25;;;3.63;;
21979;SDS011;11154;48.558;9.234;2023-07-09T05:41:19;5.22;;;3.40;;
21979;SDS011;11154;48.558;9.234;2023-07-09T05:43:22;6.78;;;3.85;;
21979;SDS011;11154;48.558;9.234;2023-07-09T05:45:23;5.60;;;3.50;;
21979;SDS011;11154;48.558;9.234;2023-07-09T05:47:25;4.78;;;3.47;;
21979;SDS011;11154;48.558;9.234;2023-07-09T05:49:27;7.03;;;3.90;;
21979;SDS011;11154;48.558;9.234;2023-07-09T05:51:28;6.93;;;3.97;;
21979;SDS011;11154;48.558;9.234;2023-07-09T05:53:30;6.80;;;3.97;;
21979;SDS011;11154;48.558;9.234;2023-07-09T05:55:33;4.85;;;3.58;;
21979;SDS011;11154;48.558;9.234;2023-07-09T05:57:34;5.85;;;3.65;;
21979;SDS011;11154;48.558;9.234;2023-07-09T05:59:37;5.45;;;3.75;;
21979;SDS011;11154;48.558;9.234;2023-07-09T06:01:39;9.50;;;3.58;;
21979;SDS011;11154;48.558;9.234;2023-07-09T06:03:41;5.78;;;3.75;;
21979;SDS011;11154;48.558;9.234;2023-07-09T06:05:42;5.25;;;3.53;;
21979;SDS011;11154;48.558;9.234;2023-07-09T06:07:44;5.82;;;3.80;;
21979;SDS011;11154;48.558;9.234;2023-07-09T06:09:46;4.65;;;3.30;;
21979;SDS011;11154;48.558;9.234;2023-07-09T06:11:48;5.22;;;3.60;;
21979;SDS011;11154;48.558;9.234;2023-07-09T06:13:51;9.98;;;4.03;;
21979;SDS011;11154;48.558;9.234;2023-07-09T06:15:54;6.13;;;3.83;;
21979;SDS011;11154;48.558;9.234;2023-07-09T06:17:56;6.97;;;3.88;;
21979;SDS011;11154;48.558;9.234;2023-07-09T06:19:57;5.75;;;3.92;;
21979;SDS011;11154;48.558;9.234;2023-07-09T06:21:59;10.38;;;3.97;;
21979;SDS011;11154;48.558;9.234;2023-07-09T06:24:01;9.43;;;4.15;;
21979;SDS011;11154;48.558;9.234;2023-07-09T06:26:02;7.10;;;4.30;;
21979;SDS011;11154;48.558;9.234;2023-07-09T06:28:04;6.75;;;4.10;;
21979;SDS011;11154;48.558;9.234;2023-07-09T06:30:05;7.53;;;3.90;;
21979;SDS011;11154;48.558;9.234;2023-07-09T06:32:09;5.25;;;3.78;;
21979;SDS011;11154;48.558;9.234;2023-07-09T06:34:10;8.32;;;3.85;;
21979;SDS011;11154;48.558;9.234;2023-07-09T06:36:13;5.28;;;3.30;;
21979;SDS011;11154;48.558;9.234;2023-07-09T06:38:14;7.07;;;3.70;;
21979;SDS011;11154;48.558;9.234;2023-07-09T06:40:16;6.35;;;3.95;;
21979;SDS011;11154;48.558;9.234;2023-07-09T06:42:18;6.50;;;3.92;;
21979;SDS011;11154;48.558;9.234;2023-07-09T06:44:19;10.98;;;4.10;;
21979;SDS011;11154;48.558;9.234;2023-07-09T06:46:21;4.78;;;3.40;;
21979;SDS011;11154;48.558;9.234;2023-07-09T06:48:24;6.82;;;3.72;;
21979;SDS011;11154;48.558;9.234;2023-07-09T06:50:27;9.55;;;4.10;;
21979;SDS011;11154;48.558;9.234;2023-07-09T06:52:28;6.55;;;3.75;;
21979;SDS011;11154;48.558;9.234;2023-07-09T06:54:30;7.88;;;3.95;;
21979;SDS011;11154;48.558;9.234;2023-07-09T06:56:31;4.47;;;3.88;;
21979;SDS011;11154;48.558;9.234;2023-07-09T06:58:33;7.53;;;3.75;;
21979;SDS011;11154;48.558;9.234;2023-07-09T07:00:35;6.20;;;4.20;;
21979;SDS011;11154;48.558;9.234;2023-07-09T07:02:37;12.02;;;4.00;;
21979;SDS011;11154;48.558;9.234;2023-07-09T07:04:39;7.53;;;3.78;;
21979;SDS011;11154;48.558;9.234;2023-07-09T07:06:41;5.65;;;3.63;;
21979;SDS011;11154;48.558;9.234;2023-07-09T07:08:43;8.45;;;3.65;;
21979;SDS011;11154;48.558;9.234;2023-07-09T07:10:44;8.02;;;4.00;;
21979;SDS011;11154;48.558;9.234;2023-07-09T07:12:47;8.32;;;3.65;;
21979;SDS011;11154;48.558;9.234;2023-07-09T07:14:49;7.60;;;4.30;;
21979;SDS011;11154;48.558;9.234;2023-07-09T07:16:51;8.25;;;3.78;;
21979;SDS011;11154;48.558;9.234;2023-07-09T07:18:53;5.43;;;4.03;;
21979;SDS011;11154;48.558;9.234;2023-07-09T07:20:55;9.02;;;4.00;;
21979;SDS011;11154;48.558;9.234;2023-07-09T07:22:58;11.55;;;4.20;;
21979;SDS011;11154;48.558;9.234;2023-07-09T07:24:59;7.05;;;3.67;;
21979;SDS011;11154;48.558;9.234;2023-07-09T07:27:01;8.40;;;3.55;;
21979;SDS011;11154;48.558;9.234;2023-07-09T07:29:02;7.28;;;4.18;;
21979;SDS011;11154;48.558;9.234;2023-07-09T07:31:05;7.03;;;3.75;;
21979;SDS011;11154;48.558;9.234;2023-07-09T07:33:08;9.02;;;3.80;;
21979;SDS011;11154;48.558;9.234;2023-07-09T07:35:10;5.82;;;3.67;;
21979;SDS011;11154;48.558;9.234;2023-07-09T07:37:14;7.97;;;3.88;;
21979;SDS011;11154;48.558;9.234;2023-07-09T07:39:16;6.53;;;3.58;;
21979;SDS011;11154;48.558;9.234;2023-07-09T07:41:18;6.07;;;3.55;;
21979;SDS011;11154;48.558;9.234;2023-07-09T07:43:19;11.23;;;4.47;;
21979;SDS011;11154;48.558;9.234;2023-07-09T07:45:21;5.97;;;3.55;;
21979;SDS011;11154;48.558;9.234;2023-07-09T07:47:23;6.38;;;4.13;;
21979;SDS011;11154;48.558;9.234;2023-07-09T07:49:25;10.10;;;4.40;;
21979;SDS011;11154;48.558;9.234;2023-07-09T07:51:27;9.20;;;3.80;;
21979;SDS011;11154;48.558;9.234;2023-07-09T07:53:30;7.20;;;3.97;;
21979;SDS011;11154;48.558;9.234;2023-07-09T07:55:32;5.05;;;3.28;;
21979;SDS011;11154;48.558;9.234;2023-07-09T07:57:34;5.18;;;3.83;;
21979;SDS011;11154;48.558;9.234;2023-07-09T07:59:36;6.63;;;3.47;;
21979;SDS011;11154;48.558;9.234;2023-07-09T08:01:38;5.40;;;3.33;;
21979;SDS011;11154;48.558;9.234;2023-07-09T08:03:39;5.65;;;3.65;;
21979;SDS011;11154;48.558;9.234;2023-07-09T08:05:41;6.68;;;3.70;;
21979;SDS011;11154;48.558;9.234;2023-07-09T08:07:42;7.03;;;3.85;;
21979;SDS011;11154;48.558;9.234;2023-07-09T08:09:44;6.40;;;3.63;;
21979;SDS011;11154;48.558;9.234;2023-07-09T08:11:47;8.85;;;3.97;;
21979;SDS011;11154;48.558;9.234;2023-07-09T08:13:49;8.27;;;4.03;;
21979;SDS011;11154;48.558;9.234;2023-07-09T08:15:51;6.97;;;3.63;;
21979;SDS011;11154;48.558;9.234;2023-07-09T08:17:53;5.72;;;3.42;;
21979;SDS011;11154;48.558;9.234;2023-07-09T08:19:54;5.45;;;3.38;;
21979;SDS011;11154;48.558;9.234;2023-07-09T08:21:57;6.65;;;3.47;;
21979;SDS011;11154;48.558;9.234;2023-07-09T08:24:04;8.35;;;4.28;;
21979;SDS011;11154;48.558;9.234;2023-07-09T08:26:08;6.00;;;3.35;;
21979;SDS011;11154;48.558;9.234;2023-07-09T08:28:10;5.85;;;3.10;;
21979;SDS011;11154;48.558;9.234;2023-07-09T08:30:11;4.00;;;3.45;;
21979;SDS011;11154;48.558;9.234;2023-07-09T08:32:13;5.22;;;2.78;;
21979;SDS011;11154;48.558;9.234;2023-07-09T08:34:15;6.30;;;3.65;;
21979;SDS011;11154;48.558;9.234;2023-07-09T08:36:17;8.90;;;3.17;;
21979;SDS011;11154;48.558;9.234;2023-07-09T08:38:19;6.47;;;3.55;;
21979;SDS011;11154;48.558;9.234;2023-07-09T08:40:20;5.20;;;3.40;;
21979;SDS011;11154;48.558;9.234;2023-07-09T08:42:26;6.25;;;3.38;;
21979;SDS011;11154;48.558;9.234;2023-07-09T08:44:39;4.47;;;3.35;;
21979;SDS011;11154;48.558;9.234;2023-07-09T08:47:00;7.10;;;3.78;;
21979;SDS011;11154;48.558;9.234;2023-07-09T08:49:06;7.82;;;3.22;;
21979;SDS011;11154;48.558;9.234;2023-07-09T08:51:17;10.43;;;3.65;;
21979;SDS011;11154;48.558;9.234;2023-07-09T08:53:24;6.60;;;3.28;;
21979;SDS011;11154;48.558;9.234;2023-07-09T08:55:34;6.43;;;3.38;;
21979;SDS011;11154;48.558;9.234;2023-07-09T08:57:43;5.82;;;3.10;;
21979;SDS011;11154;48.558;9.234;2023-07-09T08:59:48;5.38;;;2.92;;
21979;SDS011;11154;48.558;9.234;2023-07-09T09:01:52;6.15;;;3.35;;
21979;SDS011;11154;48.558;9.234;2023-07-09T09:03:58;6.55;;;2.72;;
21979;SDS011;11154;48.558;9.234;2023-07-09T09:06:01;5.32;;;2.70;;
21979;SDS011;11154;48.558;9.234;2023-07-09T09:08:04;5.72;;;3.30;;
21979;SDS011;11154;48.558;9.234;2023-07-09T09:10:14;5.32;;;2.92;;
21979;SDS011;11154;48.558;9.234;2023-07-09T09:12:24;7.00;;;3.47;;
21979;SDS011;11154;48.558;9.234;2023-07-09T09:14:31;5.40;;;2.72;;
21979;SDS011;11154;48.558;9.234;2023-07-09T09:16:37;8.25;;;3.40;;
21979;SDS011;11154;48.558;9.234;2023-07-09T09:18:41;6.13;;;3.20;;
21979;SDS011;11154;48.558;9.234;2023-07-09T09:20:44;6.43;;;2.75;;
21979;SDS011;11154;48.558;9.234;2023-07-09T09:22:50;8.85;;;2.95;;
21979;SDS011;11154;48.558;9.234;2023-07-09T09:24:58;8.20;;;2.83;;
21979;SDS011;11154;48.558;9.234;2023-07-09T09:27:04;5.53;;;3.30;;
21979;SDS011;11154;48.558;9.234;2023-07-09T09:29:09;5.35;;;2.50;;
21979;SDS011;11154;48.558;9.234;2023-07-09T09:31:14;4.25;;;2.75;;
21979;SDS011;11154;48.558;9.234;2023-07-09T09:33:17;7.43;;;3.03;;
21979;SDS011;11154;48.558;9.234;2023-07-09T09:35:19;4.13;;;3.28;;
21979;SDS011;11154;48.558;9.234;2023-07-09T09:37:29;6.20;;;2.97;;
21979;SDS011;11154;48.558;9.234;2023-07-09T09:39:31;4.85;;;3.08;;
21979;SDS011;11154;48.558;9.234;2023-07-09T09:41:33;6.70;;;2.80;;
21979;SDS011;11154;48.558;9.234;2023-07-09T09:43:38;4.93;;;2.95;;
21979;SDS011;11154;48.558;9.234;2023-07-09T09:45:43;3.50;;;2.47;;
21979;SDS011;11154;48.558;9.234;2023-07-09T09:47:48;4.82;;;3.15;;
21979;SDS011;11154;48.558;9.234;2023-07-09T09:49:51;4.78;;;2.55;;
21979;SDS011;11154;48.558;9.234;2023-07-09T09:51:54;4.60;;;2.60;;
21979;SDS011;11154;48.558;9.234;2023-07-09T09:53:57;3.97;;;2.88;;
21979;SDS011;11154;48.558;9.234;2023-07-09T09:56:03;6.78;;;2.55;;
21979;SDS011;11154;48.558;9.234;2023-07-09T09:58:11;6.45;;;2.53;;
21979;SDS011;11154;48.558;9.234;2023-07-09T10:02:17;5.03;;;3.05;;
21979;SDS011;11154;48.558;9.234;2023-07-09T10:04:21;4.60;;;2.95;;
21979;SDS011;11154;48.558;9.234;2023-07-09T10:06:26;11.65;;;2.53;;
21979;SDS011;11154;48.558;9.234;2023-07-09T10:08:39;4.80;;;2.72;;
21979;SDS011;11154;48.558;9.234;2023-07-09T10:10:51;8.13;;;2.78;;
21979;SDS011;11154;48.558;9.234;2023-07-09T10:12:59;6.85;;;3.28;;
21979;SDS011;11154;48.558;9.234;2023-07-09T10:15:11;6.30;;;3.13;;
21979;SDS011;11154;48.558;9.234;2023-07-09T10:17:27;4.95;;;3.35;;
21979;SDS011;11154;48.558;9.234;2023-07-09T10:19:42;6.05;;;3.35;;
21979;SDS011;11154;48.558;9.234;2023-07-09T10:21:51;6.20;;;3.00;;
21979;SDS011;11154;48.558;9.234;2023-07-09T10:24:00;5.18;;;3.05;;
21979;SDS011;11154;48.558;9.234;2023-07-09T10:26:14;7.05;;;3.35;;
21979;SDS011;11154;48.558;9.234;2023-07-09T10:28:24;5.63;;;2.70;;
21979;SDS011;11154;48.558;9.234;2023-07-09T10:30:39;5.80;;;3.15;;
21979;SDS011;11154;48.558;9.234;2023-07-09T10:32:55;7.45;;;2.88;;
21979;SDS011;11154;48.558;9.234;2023-07-09T10:35:09;7.80;;;3.10;;
21979;SDS011;11154;48.558;9.234;2023-07-09T10:37:22;5.10;;;2.95;;
21979;SDS011;11154;48.558;9.234;2023-07-09T10:39:42;5.00;;;2.90;;
21979;SDS011;11154;48.558;9.234;2023-07-09T10:41:48;5.30;;;2.83;;
21979;SDS011;11154;48.558;9.234;2023-07-09T10:43:53;8.63;;;3.20;;
21979;SDS011;11154;48.558;9.234;2023-07-09T10:46:01;5.20;;;2.80;;
21979;SDS011;11154;48.558;9.234;2023-07-09T10:48:09;4.78;;;2.88;;
21979;SDS011;11154;48.558;9.234;2023-07-09T10:50:17;5.40;;;2.80;;
21979;SDS011;11154;48.558;9.234;2023-07-09T10:52:25;5.97;;;3.10;;
21979;SDS011;11154;48.558;9.234;2023-07-09T10:54:29;5.25;;;3.42;;
21979;SDS011;11154;48.558;9.234;2023-07-09T10:56:36;6.13;;;2.95;;
21979;SDS011;11154;48.558;9.234;2023-07-09T10:58:42;5.22;;;3.22;;
21979;SDS011;11154;48.558;9.234;2023-07-09T11:00:48;5.32;;;3.53;;
21979;SDS011;11154;48.558;9.234;2023-07-09T11:02:50;8.15;;;3.45;;
21979;SDS011;11154;48.558;9.234;2023-07-09T11:04:59;4.28;;;3.17;;
21979;SDS011;11154;48.558;9.234;2023-07-09T11:07:04;5.38;;;3.28;;
21979;SDS011;11154;48.558;9.234;2023-07-09T11:09:22;7.82;;;3.10;;
21979;SDS011;11154;48.558;9.234;2023-07-09T11:11:29;5.10;;;3.20;;
21979;SDS011;11154;48.558;9.234;2023-07-09T11:13:35;7.40;;;3.08;;
21979;SDS011;11154;48.558;9.234;2023-07-09T11:15:41;4.35;;;2.78;;
21979;SDS011;11154;48.558;9.234;2023-07-09T11:17:46;5.20;;;2.95;;
21979;SDS011;11154;48.558;9.234;2023-07-09T11:19:52;5.72;;;3.10;;
21979;SDS011;11154;48.558;9.234;2023-07-09T11:22:02;6.03;;;3.05;;
21979;SDS011;11154;48.558;9.234;2023-07-09T11:26:31;10.05;;;3.28;;
21979;SDS011;11154;48.558;9.234;2023-07-09T11:28:34;5.40;;;3.08;;
21979;SDS011;11154;48.558;9.234;2023-07-09T11:30:49;7.30;;;3.10;;
21979;SDS011;11154;48.558;9.234;2023-07-09T11:32:53;3.55;;;2.70;;
21979;SDS011;11154;48.558;9.234;2023-07-09T11:35:08;6.70;;;3.05;;
21979;SDS011;11154;48.558;9.234;2023-07-09T11:37:12;6.75;;;3.22;;
21979;SDS011;11154;48.558;9.234;2023-07-09T11:39:20;5.63;;;3.08;;
21979;SDS011;11154;48.558;9.234;2023-07-09T11:43:47;5.57;;;2.95;;
21979;SDS011;11154;48.558;9.234;2023-07-09T11:45:49;6.72;;;3.20;;
21979;SDS011;11154;48.558;9.234;2023-07-09T11:47:52;3.90;;;2.97;;
21979;SDS011;11154;48.558;9.234;2023-07-09T11:50:00;6.32;;;3.00;;
21979;SDS011;11154;48.558;9.234;2023-07-09T11:52:03;4.45;;;3.20;;
21979;SDS011;11154;48.558;9.234;2023-07-09T11:54:08;5.00;;;2.85;;
21979;SDS011;11154;48.558;9.234;2023-07-09T11:56:13;5.40;;;3.10;;
21979;SDS011;11154;48.558;9.234;2023-07-09T11:58:15;4.65;;;3.03;;
21979;SDS011;11154;48.558;9.234;2023-07-09T12:00:18;6.53;;;3.20;;
21979;SDS011;11154;48.558;9.234;2023-07-09T12:02:20;6.32;;;3.10;;
21979;SDS011;11154;48.558;9.234;2023-07-09T12:04:23;5.20;;;3.08;;
21979;SDS011;11154;48.558;9.234;2023-07-09T12:06:33;5.18;;;2.60;;
21979;SDS011;11154;48.558;9.234;2023-07-09T12:08:40;6.45;;;3.00;;
21979;SDS011;11154;48.558;9.234;2023-07-09T12:10:44;6.13;;;3.20;;
21979;SDS011;11154;48.558;9.234;2023-07-09T12:12:46;5.43;;;3.20;;
21979;SDS011;11154;48.558;9.234;2023-07-09T12:14:48;4.68;;;3.00;;
21979;SDS011;11154;48.558;9.234;2023-07-09T12:16:50;5.22;;;3.03;;
21979;SDS011;11154;48.558;9.234;2023-07-09T12:18:53;7.18;;;3.15;;
21979;SDS011;11154;48.558;9.234;2023-07-09T12:20:55;8.43;;;3.17;;
21979;SDS011;11154;48.558;9.234;2023-07-09T12:22:57;7.45;;;3.17;;
21979;SDS011;11154;48.558;9.234;2023-07-09T12:24:59;6.60;;;3.25;;
21979;SDS011;11154;48.558;9.234;2023-07-09T12:27:03;5.55;;;2.88;;
21979;SDS011;11154;48.558;9.234;2023-07-09T12:29:18;6.68;;;3.22;;
21979;SDS011;11154;48.558;9.234;2023-07-09T12:31:21;6.82;;;3.10;;
21979;SDS011;11154;48.558;9.234;2023-07-09T12:33:26;5.05;;;3.00;;
21979;SDS011;11154;48.558;9.234;2023-07-09T12:35:28;5.80;;;2.70;;